createdAt,value
2018-05-01T00:02:09.141Z,10.60
2018-05-01T00:04:36.690Z,10.60
2018-05-01T00:07:04.250Z,10.50
2018-05-01T00:09:31.791Z,10.50
2018-05-01T00:11:59.329Z,10.50
2018-05-01T00:14:26.898Z,10.50
2018-05-01T00:16:55.220Z,10.50
2018-05-01T00:19:22.754Z,10.50
2018-05-01T00:21:51.062Z,10.50
2018-05-01T00:24:18.592Z,10.50
2018-05-01T00:26:46.931Z,10.40
2018-05-01T00:29:14.474Z,10.40
2018-05-01T00:31:42.019Z,10.30
2018-05-01T00:34:09.626Z,10.30
2018-05-01T00:36:37.190Z,10.30
2018-05-01T00:39:04.828Z,10.40
2018-05-01T00:41:32.389Z,10.50
2018-05-01T00:43:59.942Z,10.50
2018-05-01T00:46:27.522Z,10.60
2018-05-01T00:48:55.080Z,10.60
2018-05-01T00:51:22.656Z,10.70
2018-05-01T00:53:50.194Z,10.70
2018-05-01T00:56:18.495Z,10.80
2018-05-01T00:58:46.063Z,10.70
2018-05-01T01:01:13.609Z,10.80
2018-05-01T01:03:41.174Z,10.80
2018-05-01T01:06:08.768Z,10.80
2018-05-01T01:08:36.348Z,10.80
2018-05-01T01:11:03.926Z,10.80
2018-05-01T01:13:31.465Z,10.70
2018-05-01T01:15:59.034Z,10.70
2018-05-01T01:18:26.602Z,10.70
2018-05-01T01:20:54.184Z,10.70
2018-05-01T01:23:21.726Z,10.70
2018-05-01T01:25:49.274Z,10.60
2018-05-01T01:28:16.818Z,10.70
2018-05-01T01:30:44.381Z,10.60
2018-05-01T01:33:11.967Z,10.60
2018-05-01T01:35:39.042Z,10.60
2018-05-01T01:38:06.088Z,10.60
2018-05-01T01:40:33.161Z,10.60
2018-05-01T01:43:00.242Z,10.50
2018-05-01T01:45:28.053Z,10.50
2018-05-01T01:47:55.117Z,10.40
2018-05-01T01:50:22.171Z,10.40
2018-05-01T01:52:49.222Z,10.40
2018-05-01T01:55:16.390Z,10.40
2018-05-01T01:57:43.443Z,10.50
2018-05-01T02:00:10.519Z,10.40
2018-05-01T02:02:38.330Z,10.40
2018-05-01T02:05:05.409Z,10.30
2018-05-01T02:07:32.489Z,10.30
2018-05-01T02:09:59.571Z,10.30
2018-05-01T02:12:26.651Z,10.30
2018-05-01T02:14:53.716Z,10.40
2018-05-01T02:17:20.760Z,10.30
2018-05-01T02:19:47.938Z,10.30
2018-05-01T02:22:15.022Z,10.40
2018-05-01T02:24:42.906Z,10.40
2018-05-01T02:27:10.006Z,10.40
2018-05-01T02:29:37.072Z,10.40
2018-05-01T02:32:04.132Z,10.40
2018-05-01T02:34:31.183Z,10.30
2018-05-01T02:36:58.240Z,10.30
2018-05-01T02:39:25.323Z,10.30
2018-05-01T02:41:52.384Z,10.30
2018-05-01T02:44:19.447Z,10.30
2018-05-01T02:46:46.522Z,10.40
2018-05-01T02:49:13.603Z,10.40
2018-05-01T02:51:40.662Z,10.30
2018-05-01T02:54:07.712Z,10.30
2018-05-01T02:56:34.752Z,10.30
2018-05-01T02:59:01.793Z,10.30
2018-05-01T03:01:28.868Z,10.30
2018-05-01T03:03:55.921Z,10.30
2018-05-01T03:06:22.970Z,10.30
2018-05-01T03:08:50.047Z,10.20
2018-05-01T03:11:17.866Z,10.20
2018-05-01T03:13:44.947Z,10.20
2018-05-01T03:16:12.018Z,10.20
2018-05-01T03:18:39.832Z,10.20
2018-05-01T03:21:06.882Z,10.20
2018-05-01T03:23:33.953Z,10.30
2018-05-01T03:26:00.993Z,10.30
2018-05-01T03:28:28.042Z,10.30
2018-05-01T03:30:55.100Z,10.30
2018-05-01T03:33:22.144Z,10.30
2018-05-01T03:35:49.197Z,10.30
2018-05-01T03:38:16.256Z,10.30
2018-05-01T03:40:43.321Z,10.40
2018-05-01T03:43:10.399Z,10.40
2018-05-01T03:45:37.445Z,10.50
2018-05-01T03:48:04.495Z,10.50
2018-05-01T03:50:31.550Z,10.40
2018-05-01T03:52:58.622Z,10.40
2018-05-01T03:55:26.448Z,10.50
2018-05-01T03:57:53.528Z,10.50
2018-05-01T04:00:20.607Z,10.50
2018-05-01T04:02:48.430Z,10.60
2018-05-01T04:05:16.237Z,10.70
2018-05-01T04:07:44.074Z,10.80
2018-05-01T04:10:11.191Z,10.80
2018-05-01T04:12:38.241Z,10.80
2018-05-01T04:15:05.321Z,10.90
2018-05-01T04:17:32.396Z,10.90
2018-05-01T04:19:59.465Z,10.90
2018-05-01T04:22:26.509Z,10.90
2018-05-01T04:24:53.582Z,10.90
2018-05-01T04:27:21.402Z,11.00
2018-05-01T04:29:48.478Z,10.90
2018-05-01T04:32:15.554Z,10.90
2018-05-01T04:34:43.380Z,11.00
2018-05-01T04:37:10.423Z,11.00
2018-05-01T04:39:37.495Z,11.00
2018-05-01T04:42:04.567Z,11.10
2018-05-01T04:44:31.617Z,11.10
2018-05-01T04:46:58.660Z,11.10
2018-05-01T04:49:25.738Z,11.20
2018-05-01T04:51:53.544Z,11.30
2018-05-01T04:54:20.614Z,11.30
2018-05-01T04:56:47.687Z,11.30
2018-05-01T04:59:14.748Z,11.40
2018-05-01T05:01:41.802Z,11.40
2018-05-01T05:04:08.859Z,11.40
2018-05-01T05:06:35.910Z,11.50
2018-05-01T05:09:02.983Z,11.60
2018-05-01T05:11:30.810Z,11.80
2018-05-01T05:13:57.865Z,11.80
2018-05-01T05:16:24.918Z,11.80
2018-05-01T05:18:51.967Z,11.90
2018-05-01T05:21:19.043Z,12.00
2018-05-01T05:23:46.115Z,12.10
2018-05-01T05:26:14.009Z,12.30
2018-05-01T05:28:41.086Z,12.20
2018-05-01T05:31:08.126Z,12.30
2018-05-01T05:33:35.177Z,12.40
2018-05-01T05:36:02.237Z,12.50
2018-05-01T05:38:29.308Z,12.50
2018-05-01T05:40:56.360Z,12.50
2018-05-01T05:43:23.426Z,12.60
2018-05-01T05:45:50.522Z,12.60
2018-05-01T05:48:18.333Z,12.60
2018-05-01T05:50:45.414Z,12.60
2018-05-01T05:53:12.482Z,12.70
2018-05-01T05:55:40.307Z,12.80
2018-05-01T05:58:07.354Z,12.80
2018-05-01T06:00:34.397Z,12.90
2018-05-01T06:03:01.479Z,13.00
2018-05-01T06:05:28.526Z,13.10
2018-05-01T06:07:55.594Z,13.20
2018-05-01T06:10:22.659Z,13.40
2018-05-01T06:12:50.654Z,13.70
2018-05-01T06:15:17.731Z,14.00
2018-05-01T06:17:44.778Z,14.40
2018-05-01T06:20:11.809Z,14.70
2018-05-01T06:22:39.918Z,15.00
2018-05-01T06:25:06.977Z,14.90
2018-05-01T06:27:34.022Z,15.00
2018-05-01T06:30:01.057Z,15.00
2018-05-01T06:32:28.102Z,14.90
2018-05-01T06:34:55.938Z,14.80
2018-05-01T06:37:23.074Z,14.80
2018-05-01T06:39:49.965Z,14.80
2018-05-01T06:42:17.570Z,14.70
2018-05-01T06:44:44.405Z,14.70
2018-05-01T06:47:11.309Z,14.70
2018-05-01T06:49:38.162Z,14.70
2018-05-01T06:52:05.030Z,14.70
2018-05-01T06:54:32.643Z,14.70
2018-05-01T06:56:59.488Z,14.70
2018-05-01T06:59:26.562Z,14.70
2018-05-01T07:01:53.611Z,14.80
2018-05-01T07:04:20.711Z,14.80
2018-05-01T07:06:47.767Z,14.80
2018-05-01T07:09:14.835Z,14.90
2018-05-01T07:11:41.887Z,15.10
2018-05-01T07:14:08.938Z,15.40
2018-05-01T07:16:35.799Z,15.70
2018-05-01T07:19:02.689Z,15.90
2018-05-01T07:21:29.536Z,16.00
2018-05-01T07:23:56.375Z,15.90
2018-05-01T07:26:23.247Z,15.90
2018-05-01T07:28:50.853Z,15.70
2018-05-01T07:31:17.717Z,15.70
2018-05-01T07:33:44.564Z,15.70
2018-05-01T07:36:11.402Z,15.60
2018-05-01T07:38:38.271Z,15.50
2018-05-01T07:41:05.096Z,15.40
2018-05-01T07:43:31.920Z,15.40
2018-05-01T07:45:58.783Z,15.60
2018-05-01T07:48:25.612Z,16.00
2018-05-01T07:50:53.196Z,16.70
2018-05-01T07:53:20.090Z,16.70
2018-05-01T07:55:46.961Z,17.00
2018-05-01T07:58:14.567Z,17.30
2018-05-01T08:00:41.403Z,17.30
2018-05-01T08:03:08.255Z,17.40
2018-05-01T08:05:35.143Z,17.40
2018-05-01T08:08:02.009Z,17.20
2018-05-01T08:10:29.637Z,16.90
2018-05-01T08:12:56.501Z,16.90
2018-05-01T08:15:23.342Z,16.80
2018-05-01T08:17:50.226Z,16.80
2018-05-01T08:20:17.906Z,16.70
2018-05-01T08:22:44.771Z,16.70
2018-05-01T08:25:11.625Z,16.70
2018-05-01T08:27:38.494Z,16.70
2018-05-01T08:30:05.335Z,16.70
2018-05-01T08:32:32.168Z,16.70
2018-05-01T08:34:59.075Z,16.70
2018-05-01T08:37:25.938Z,16.70
2018-05-01T08:39:53.546Z,16.60
2018-05-01T08:42:20.390Z,16.50
2018-05-01T08:44:47.237Z,16.50
2018-05-01T08:47:14.098Z,16.50
2018-05-01T08:49:40.937Z,16.50
2018-05-01T08:52:07.797Z,16.50
2018-05-01T08:54:34.689Z,16.50
2018-05-01T08:57:02.324Z,16.80
2018-05-01T08:59:29.178Z,16.70
2018-05-01T09:01:56.043Z,16.90
2018-05-01T09:04:23.650Z,16.90
2018-05-01T09:06:50.477Z,16.80
2018-05-01T09:09:17.309Z,16.80
2018-05-01T09:11:44.951Z,16.80
2018-05-01T09:14:11.798Z,16.70
2018-05-01T09:16:38.620Z,16.80
2018-05-01T09:19:05.495Z,16.70
2018-05-01T09:21:32.357Z,16.60
2018-05-01T09:23:59.198Z,16.60
2018-05-01T09:26:26.067Z,16.60
2018-05-01T09:28:53.694Z,16.80
2018-05-01T09:31:20.595Z,16.80
2018-05-01T09:33:47.457Z,16.90
2018-05-01T09:36:14.297Z,16.90
2018-05-01T09:38:41.136Z,17.00
2018-05-01T09:41:07.998Z,17.00
2018-05-01T09:43:34.858Z,17.00
2018-05-01T09:46:01.705Z,17.00
2018-05-01T09:48:28.537Z,17.00
2018-05-01T09:50:55.364Z,17.20
2018-05-01T09:53:23.338Z,17.50
2018-05-01T09:55:50.402Z,17.50
2018-05-01T09:58:17.509Z,17.50
2018-05-01T10:00:44.623Z,17.50
2018-05-01T10:03:11.732Z,17.50
2018-05-01T10:05:38.850Z,17.40
2018-05-01T10:08:05.965Z,17.40
2018-05-01T10:10:33.841Z,17.30
2018-05-01T10:13:00.956Z,17.20
2018-05-01T10:15:28.082Z,17.20
2018-05-01T10:17:55.166Z,17.20
2018-05-01T10:20:22.724Z,17.20
2018-05-01T10:22:49.816Z,17.20
2018-05-01T10:25:18.126Z,17.20
2018-05-01T10:27:45.259Z,17.20
2018-05-01T10:30:12.841Z,17.40
2018-05-01T10:32:40.424Z,17.60
2018-05-01T10:35:07.981Z,17.70
2018-05-01T10:37:35.070Z,17.90
2018-05-01T10:40:02.169Z,18.10
2018-05-01T10:42:29.707Z,18.30
2018-05-01T10:44:57.586Z,18.90
2018-05-01T10:47:25.473Z,19.10
2018-05-01T10:49:52.602Z,19.10
2018-05-01T10:59:45.157Z,19.40
2018-05-01T11:02:12.279Z,20.50
2018-05-01T11:04:40.186Z,20.50
2018-05-01T11:07:07.276Z,20.50
2018-05-01T11:09:34.389Z,20.40
2018-05-01T11:12:01.529Z,20.20
2018-05-01T11:14:28.650Z,20.00
2018-05-01T11:16:56.538Z,20.00
2018-05-01T11:19:24.403Z,20.10
2018-05-01T11:21:52.252Z,20.20
2018-05-01T11:24:19.356Z,20.20
2018-05-01T11:26:46.519Z,20.00
2018-05-01T11:29:13.611Z,19.80
2018-05-01T11:31:40.722Z,19.90
2018-05-01T11:34:07.813Z,19.90
2018-05-01T11:36:34.909Z,19.70
2018-05-01T11:39:02.069Z,19.60
2018-05-01T11:41:29.185Z,19.60
2018-05-01T11:43:57.134Z,19.20
2018-05-01T11:46:24.775Z,19.20
2018-05-01T11:48:53.031Z,19.00
2018-05-01T11:51:20.138Z,19.00
2018-05-01T11:53:47.793Z,18.80
2018-05-01T11:56:16.041Z,18.50
2018-05-01T11:58:43.176Z,18.60
2018-05-01T12:01:10.315Z,18.90
2018-05-01T12:03:37.855Z,19.20
2018-05-01T12:06:05.403Z,19.50
2018-05-01T12:08:32.518Z,19.70
2018-05-01T12:11:00.097Z,20.10
2018-05-01T12:13:27.635Z,20.40
2018-05-01T12:15:55.996Z,20.40
2018-05-01T12:18:23.515Z,20.40
2018-05-01T12:20:51.074Z,20.20
2018-05-01T12:23:18.164Z,20.30
2018-05-01T12:25:45.737Z,20.30
2018-05-01T12:28:13.280Z,20.00
2018-05-01T12:30:40.808Z,19.90
2018-05-01T12:33:08.662Z,19.60
2018-05-01T12:35:36.238Z,19.60
2018-05-01T12:38:03.799Z,19.40
2018-05-01T12:40:32.093Z,18.90
2018-05-01T12:42:59.632Z,18.90
2018-05-01T12:45:27.921Z,18.90
2018-05-01T12:47:55.046Z,18.90
2018-05-01T12:50:22.593Z,19.00
2018-05-01T12:52:50.135Z,19.30
2018-05-01T12:55:17.657Z,19.50
2018-05-01T12:57:45.945Z,19.80
2018-05-01T13:00:14.247Z,19.80
2018-05-01T13:02:41.828Z,19.80
2018-05-01T13:05:09.403Z,20.00
2018-05-01T13:07:36.936Z,20.00
2018-05-01T13:10:04.525Z,19.90
2018-05-01T13:12:32.110Z,19.90
2018-05-01T13:14:59.611Z,19.70
2018-05-01T13:17:28.027Z,19.80
2018-05-01T13:19:55.563Z,19.80
2018-05-01T13:22:23.890Z,19.50
2018-05-01T13:24:51.510Z,19.50
2018-05-01T13:27:19.868Z,19.70
2018-05-01T13:29:47.732Z,20.00
2018-05-01T13:32:15.283Z,20.00
2018-05-01T13:34:42.851Z,20.00
2018-05-01T13:37:10.401Z,19.70
2018-05-01T13:39:37.959Z,19.80
2018-05-01T13:42:05.519Z,19.80
2018-05-01T13:44:33.060Z,19.80
2018-05-01T13:47:00.214Z,19.70
2018-05-01T13:49:27.328Z,19.60
2018-05-01T13:51:55.676Z,19.40
2018-05-01T13:54:23.341Z,19.30
2018-05-01T13:56:50.815Z,19.30
2018-05-01T13:59:18.367Z,19.40
2018-05-01T14:01:45.902Z,19.50
2018-05-01T14:04:13.449Z,19.20
2018-05-01T14:06:41.702Z,19.00
2018-05-01T14:09:09.253Z,18.90
2018-05-01T14:11:36.827Z,18.90
2018-05-01T14:14:04.366Z,18.90
2018-05-01T14:16:31.935Z,18.80
2018-05-01T14:18:59.470Z,18.90
2018-05-01T14:21:27.013Z,19.20
2018-05-01T14:23:55.339Z,19.40
2018-05-01T14:26:22.883Z,19.40
2018-05-01T14:28:50.420Z,19.50
2018-05-01T14:31:18.718Z,19.70
2018-05-01T14:33:47.004Z,19.80
2018-05-01T14:36:14.562Z,19.80
2018-05-01T14:38:42.112Z,19.90
2018-05-01T14:41:10.454Z,19.70
2018-05-01T14:43:38.017Z,19.60
2018-05-01T14:46:05.551Z,19.50
2018-05-01T14:48:33.094Z,19.60
2018-05-01T14:51:01.423Z,19.60
2018-05-01T14:53:28.981Z,19.60
2018-05-01T14:55:56.528Z,19.70
2018-05-01T14:58:24.057Z,19.80
2018-05-01T15:00:52.354Z,19.70
2018-05-01T15:03:20.651Z,19.60
2018-05-01T15:05:48.193Z,19.60
2018-05-01T15:08:16.495Z,19.30
2018-05-01T15:10:44.027Z,19.30
2018-05-01T15:13:12.389Z,19.00
2018-05-01T15:15:39.946Z,18.90
2018-05-01T15:18:07.512Z,19.00
2018-05-01T15:20:35.060Z,19.00
2018-05-01T15:23:02.584Z,18.90
2018-05-01T15:25:30.182Z,18.80
2018-05-01T15:27:57.751Z,18.70
2018-05-01T15:30:25.336Z,18.60
2018-05-01T15:32:52.878Z,18.50
2018-05-01T15:35:20.443Z,18.50
2018-05-01T15:37:47.979Z,18.50
2018-05-01T15:40:15.541Z,18.60
2018-05-01T15:42:43.069Z,18.60
2018-05-01T15:45:10.684Z,18.70
2018-05-01T15:47:38.803Z,18.80
2018-05-01T15:50:06.358Z,19.00
2018-05-01T15:52:33.898Z,19.10
2018-05-01T15:55:01.445Z,19.10
2018-05-01T15:57:29.058Z,19.00
2018-05-01T15:59:56.554Z,19.00
2018-05-01T16:02:24.875Z,18.80
2018-05-01T16:04:52.441Z,18.80
2018-05-01T16:07:20.002Z,18.70
2018-05-01T16:09:47.567Z,18.50
2018-05-01T16:12:15.102Z,18.30
2018-05-01T16:14:42.666Z,18.10
2018-05-01T16:17:10.223Z,17.90
2018-05-01T16:19:37.754Z,17.70
2018-05-01T16:22:05.309Z,17.70
2018-05-01T16:24:32.946Z,17.50
2018-05-01T16:27:00.510Z,17.50
2018-05-01T16:29:28.057Z,17.40
2018-05-01T16:31:55.634Z,17.40
2018-05-01T16:34:23.191Z,17.50
2018-05-01T16:36:52.359Z,17.60
2018-05-01T16:39:20.667Z,17.80
2018-05-01T16:41:48.544Z,17.80
2018-05-01T16:44:16.079Z,17.80
2018-05-01T16:46:44.494Z,17.80
2018-05-01T16:49:12.026Z,17.70
2018-05-01T16:51:40.350Z,17.70
2018-05-01T16:54:07.889Z,17.70
2018-05-01T16:56:35.427Z,17.70
2018-05-01T16:59:03.727Z,17.60
2018-05-01T17:01:31.282Z,17.60
2018-05-01T17:03:59.626Z,17.50
2018-05-01T17:06:27.166Z,17.40
2018-05-01T17:08:54.786Z,17.40
2018-05-01T17:11:22.313Z,17.30
2018-05-01T17:13:49.930Z,17.40
2018-05-01T17:16:17.502Z,17.30
2018-05-01T17:18:45.075Z,17.30
2018-05-01T17:21:12.626Z,17.30
2018-05-01T17:23:40.227Z,17.20
2018-05-01T17:26:07.789Z,17.10
2018-05-01T17:28:36.115Z,17.00
2018-05-01T17:31:04.458Z,17.00
2018-05-01T17:33:32.104Z,16.90
2018-05-01T17:35:59.644Z,16.80
2018-05-01T17:38:28.121Z,16.60
2018-05-01T17:40:56.446Z,16.50
2018-05-01T17:43:23.974Z,16.50
2018-05-01T17:45:51.511Z,16.50
2018-05-01T17:48:19.120Z,16.40
2018-05-01T17:50:46.689Z,16.30
2018-05-01T17:53:14.249Z,16.20
2018-05-01T17:55:41.828Z,16.20
2018-05-01T17:58:09.394Z,16.10
2018-05-01T18:00:36.972Z,16.00
2018-05-01T18:03:04.596Z,15.90
2018-05-01T18:05:32.169Z,15.90
2018-05-01T18:07:59.705Z,15.80
2018-05-01T18:10:28.027Z,15.60
2018-05-01T18:12:55.612Z,15.60
2018-05-01T18:15:23.134Z,15.50
2018-05-01T18:17:50.767Z,15.40
2018-05-01T18:20:18.330Z,15.30
2018-05-01T18:22:45.869Z,15.20
2018-05-01T18:25:13.443Z,15.10
2018-05-01T18:27:41.050Z,15.10
2018-05-01T18:30:08.639Z,15.00
2018-05-01T18:32:36.184Z,15.00
2018-05-01T18:35:03.728Z,14.90
2018-05-01T18:37:32.060Z,14.80
2018-05-01T18:39:59.628Z,14.80
2018-05-01T18:42:27.212Z,14.70
2018-05-01T18:44:54.754Z,14.70
2018-05-01T18:47:22.310Z,14.60
2018-05-01T18:49:49.881Z,14.60
2018-05-01T18:52:17.429Z,14.50
2018-05-01T18:54:44.983Z,14.50
2018-05-01T18:57:12.535Z,14.50
2018-05-01T18:59:40.854Z,14.30
2018-05-01T19:02:08.440Z,14.30
2018-05-01T19:04:36.079Z,14.20
2018-05-01T19:07:04.340Z,14.10
2018-05-01T19:09:31.898Z,14.10
2018-05-01T19:11:59.512Z,14.00
2018-05-01T19:14:27.112Z,13.90
2018-05-01T19:16:55.471Z,13.80
2018-05-01T19:19:23.031Z,13.80
2018-05-01T19:21:50.612Z,13.70
2018-05-01T19:24:18.165Z,13.70
2018-05-01T19:26:45.702Z,13.60
2018-05-01T19:29:13.266Z,13.60
2018-05-01T19:31:40.807Z,13.60
2018-05-01T19:34:08.343Z,13.60
2018-05-01T19:36:36.629Z,13.50
2018-05-01T19:39:05.781Z,13.40
2018-05-01T19:41:33.410Z,13.40
2018-05-01T19:44:00.876Z,13.30
2018-05-01T19:46:28.406Z,13.30
2018-05-01T19:48:56.045Z,13.20
2018-05-01T19:51:23.590Z,13.20
2018-05-01T19:53:51.246Z,13.20
2018-05-01T19:56:18.915Z,13.10
2018-05-01T19:58:46.474Z,13.00
2018-05-01T20:01:14.030Z,12.90
2018-05-01T20:03:41.600Z,12.90
2018-05-01T20:06:09.164Z,12.80
2018-05-01T20:08:36.730Z,12.80
2018-05-01T20:11:04.282Z,12.70
2018-05-01T20:13:31.850Z,12.70
2018-05-01T20:15:59.423Z,12.60
2018-05-01T20:18:26.952Z,12.60
2018-05-01T20:20:55.250Z,12.40
2018-05-01T20:23:23.547Z,12.40
2018-05-01T20:25:51.091Z,12.30
2018-05-01T20:28:19.398Z,12.20
2018-05-01T20:30:46.955Z,12.20
2018-05-01T20:33:14.525Z,12.20
2018-05-01T20:35:42.102Z,12.10
2018-05-01T20:38:09.605Z,12.00
2018-05-01T20:40:37.128Z,12.00
2018-05-01T20:43:04.663Z,12.00
2018-05-01T20:45:32.194Z,12.00
2018-05-01T20:47:59.758Z,11.90
2018-05-01T20:50:27.366Z,11.90
2018-05-01T20:52:54.934Z,11.90
2018-05-01T20:55:22.550Z,11.80
2018-05-01T20:57:50.081Z,11.80
2018-05-01T21:00:17.650Z,11.70
2018-05-01T21:02:45.194Z,11.70
2018-05-01T21:05:12.773Z,11.60
2018-05-01T21:07:40.319Z,11.50
2018-05-01T21:10:07.880Z,11.50
2018-05-01T21:12:35.493Z,11.40
2018-05-01T21:15:03.082Z,11.40
2018-05-01T21:17:31.400Z,11.40
2018-05-01T21:19:58.957Z,11.30
2018-05-01T21:22:26.513Z,11.30
2018-05-01T21:24:54.042Z,11.10
2018-05-01T21:27:21.598Z,11.00
2018-05-01T21:29:49.159Z,11.00
2018-05-01T21:32:16.710Z,10.90
2018-05-01T21:34:45.019Z,10.90
2018-05-01T21:37:13.338Z,10.80
2018-05-01T21:39:40.868Z,10.80
2018-05-01T21:42:09.161Z,10.50
2018-05-01T21:44:37.468Z,10.20
2018-05-01T21:47:05.071Z,10.20
2018-05-01T21:49:32.682Z,9.90
2018-05-01T21:52:00.237Z,9.80
2018-05-01T21:54:27.769Z,9.80
2018-05-01T21:56:55.291Z,9.80
2018-05-01T21:59:22.852Z,9.80
2018-05-01T22:01:50.404Z,9.80
2018-05-01T22:04:17.944Z,9.60
2018-05-01T22:06:46.262Z,9.20
2018-05-01T22:09:13.814Z,9.20
2018-05-01T22:11:41.375Z,9.10
2018-05-01T22:14:08.916Z,9.20
2018-05-01T22:16:37.235Z,9.40
2018-05-01T22:19:04.786Z,9.40
2018-05-01T22:21:32.338Z,9.40
2018-05-01T22:24:00.652Z,9.20
2018-05-01T22:26:28.207Z,9.20
2018-05-01T22:28:55.771Z,9.10
2018-05-01T22:31:23.350Z,9.00
2018-05-01T22:33:50.892Z,8.80
2018-05-01T22:36:18.443Z,8.60
2018-05-01T22:38:46.759Z,8.20
2018-05-01T22:41:14.358Z,8.20
2018-05-01T22:43:41.890Z,8.00
2018-05-01T22:46:09.435Z,7.90
2018-05-01T22:48:36.990Z,7.80
2018-05-01T22:51:04.522Z,7.80
2018-05-01T22:53:32.068Z,7.80
2018-05-01T22:55:59.625Z,7.80
2018-05-01T22:58:27.155Z,7.80
2018-05-01T23:00:54.686Z,7.70
2018-05-01T23:03:23.001Z,7.50
2018-05-01T23:05:50.559Z,7.50
2018-05-01T23:08:18.091Z,7.40
2018-05-01T23:10:46.387Z,7.20
2018-05-01T23:13:14.728Z,7.30
2018-05-01T23:15:42.294Z,7.30
2018-05-01T23:18:09.870Z,7.50
2018-05-01T23:20:37.417Z,7.60
2018-05-01T23:23:04.945Z,7.60
2018-05-01T23:25:32.504Z,7.60
2018-05-01T23:28:00.087Z,7.50
2018-05-01T23:30:27.622Z,7.60
2018-05-01T23:32:55.141Z,7.70
2018-05-01T23:35:22.690Z,7.70
2018-05-01T23:37:50.213Z,7.60
2018-05-01T23:40:17.746Z,7.60
2018-05-01T23:42:45.285Z,7.50
2018-05-01T23:45:12.840Z,7.30
2018-05-01T23:47:40.373Z,7.10
2018-05-01T23:50:07.903Z,7.00
2018-05-01T23:52:35.433Z,7.00
2018-05-01T23:55:02.971Z,7.00
2018-05-01T23:57:30.503Z,7.00
2018-05-01T23:59:58.819Z,7.00
